Salem, SD (57058)

11:52 PM CDT on May 06, 2015 (GMT -0500)
Rural Canova, SD | | Change Station
CLOSE
Current Station
Personal Weather Station
Location: Canova, SD
Elevation: 1542 ft
Nearby Weather Stations

Elev 1542 ft 43.81 °N, 97.48 °W | Updated 1 second ago

Rain
Rain
62.7 °F
Feels Like 62.7 °F
N
16.6
Wind Variable Wind from SE
Gusts 19.6 mph

Today
High -- | Low -- °F
--% Chance of Precip.
Yesterday
High -- | Low -- °F
Precip. -- in
6:15 AM 8:37 PM
Waning Gibbous, 90% visible
Pressure 29.67 in
Visibility 10.0 miles
Clouds Mostly Cloudy 1800 ft
Overcast 2500 ft
Dew Point 61 °F
Humidity 93%
Rainfall 0.18 in
Snow Depth Not available.
UV 0 out of 12
Pollen 7.20 out of 12
Air Quality Not available.
Flu Activity Sporadic
METAR KMDS 070430Z AUTO 15021G27KT 10SM -RA BKN018 OVC025 17/17 A2967 RMK AO2

More Conditions Fewer Conditions

Pressure 29.67 in
Visibility 10.0 miles
Clouds Mostly Cloudy 1800 ft
Overcast 2500 ft
Dew Point 61 °F
Humidity 93%
Rainfall 0.18 in
Snow Depth Not available.
UV 0 out of 12
Pollen 7.20 out of 12
Air Quality Not available.
Flu Activity Sporadic
METAR KMDS 070430Z AUTO 15021G27KT 10SM -RA BKN018 OVC025 17/17 A2967 RMK AO2

More Conditions Fewer Conditions

10-Day Weather Forecast

Almanac

Astronomy

May. 06, 2015 Rise Set
Actual Time
Civil Twilight
Nautical Twilight
Astronomical Twilight
Moon
Length of Visible Light
Length of Day
Tomorrow will be .
, % of the Moon is Illuminated

Today's Extremes

State Highs State Lows

Community

WunderPhotos

Upload Photos

1,819,121 photos uploaded!

WunderBlogs® & News

Nearby

Air Quality

  Air Quality AQ Index Pollutant
Not available.

Snow Depth

Station Depth Elevation

Earthquake Activity

City Distance Mag. Time & Date
Minimum magnitude displayed is 2.5.

Coastal Water Temperatures

Place Temperature

Stations

Nearby Weather Stations

Station Location Temp. Windchill Dew Point Humidity Wind Precip. Elev Updated Type